^^
Saratoga-Weather Station Historical Data
Daily Summary for May 8, 2021 Units:  English    Metric   Both
Daily Weekly Monthly Yearly Custom
  High: Low: Average:
Temperature: 69.3 °F 56.5 °F 61.7 °F
Dew Point: 58.5 °F 52.2 °F 54.9 °F
Humidity: 90% 56% 79%
Wind Speed: 12.1mph 0mph 2.3mph
Wind Gust: 18mph - -
Wind- - WSW
Pressure: 30 in 29.7 in -
Precipitation: 0.1 in    
Historical Graphs
 
 
Tabular Data for May 8, 2021
Time Temperature Dew Point Pressure Wind Wind Speed Wind Gust Humidity Rainfall Rate (Hourly) solar
00:04 61.5 °F 57.4 °F 29.7 in West 2 mph 3 mph 86% 0 in 0 W/m2
00:09 61.3 °F 57.4 °F 29.7 in Calm   3 mph 87% 0 in 0 W/m2
00:14 61.3 °F 57.4 °F 29.7 in NW 2 mph 4 mph 87% 0 in 0 W/m2
00:19 61.2 °F 57.2 °F 29.7 in WNW 2.9 mph 5 mph 87% 0 in 0 W/m2
00:24 61.2 °F 57.2 °F 29.7 in Calm   2 mph 87% 0 in 0 W/m2
00:29 61.2 °F 57.2 °F 29.7 in NW 2 mph 6 mph 87% 0 in 0 W/m2
00:34 61.2 °F 57.2 °F 29.7 in West 2.9 mph 8 mph 87% 0 in 0 W/m2
00:39 61.2 °F 57.2 °F 29.7 in West 2 mph 3 mph 87% 0 in 0 W/m2
00:44 61.2 °F 57.2 °F 29.7 in ESE 2 mph 3 mph 87% 0 in 0 W/m2
00:49 61.2 °F 57 °F 29.7 in Calm   2 mph 86% 0 in 0 W/m2
00:54 61.2 °F 57 °F 29.7 in West 0.9 mph 3 mph 86% 0 in 0 W/m2
00:59 61 °F 56.8 °F 29.7 in NW 2 mph 3 mph 86% 0 in 0 W/m2
01:04 61 °F 56.8 °F 29.7 in Calm   2 mph 86% 0 in 0 W/m2
01:09 60.8 °F 56.3 °F 29.7 in NNW 2.9 mph 5 mph 85% 0 in 0 W/m2
01:14 60.6 °F 56.1 °F 29.7 in WSW 6.9 mph 9 mph 85% 0 in 0 W/m2
01:19 60.6 °F 55.8 °F 29.7 in NW 0.9 mph 5 mph 84% 0 in 0 W/m2
01:24 60.6 °F 55.8 °F 29.7 in WSW 2.9 mph 9 mph 84% 0 in 0 W/m2
01:29 60.6 °F 55.4 °F 29.7 in WSW 0.9 mph 2 mph 83% 0 in 0 W/m2
01:34 60.8 °F 55.6 °F 29.7 in WNW 2 mph 4 mph 83% 0 in 0 W/m2
01:39 60.8 °F 55.6 °F 29.7 in Calm   4 mph 83% 0 in 0 W/m2
01:57 60.3 °F 55 °F 29.7 in Calm   1 mph 83% 0 in 0 W/m2
02:02 60.1 °F 54.9 °F 29.7 in Calm   2 mph 83% 0 in 0 W/m2
02:07 59.9 °F 55 °F 29.8 in Calm   2 mph 84% 0 in 0 W/m2
02:12 59.7 °F 54.9 °F 29.8 in Calm   2 mph 84% 0 in 0 W/m2
02:17 59.7 °F 55.2 °F 29.8 in NE 0.9 mph 3 mph 85% 0 in 0 W/m2
02:22 59.5 °F 55 °F 29.8 in NE 2 mph 2 mph 85% 0 in 0 W/m2
02:27 59.4 °F 54.9 °F 29.8 in NW 0.9 mph 4 mph 85% 0 in 0 W/m2
02:47 59.2 °F 55.4 °F 29.8 in West 0.9 mph 2 mph 87% 0 in 0 W/m2
02:52 59 °F 55.2 °F 29.8 in NNE 2.9 mph 4 mph 87% 0 in 0 W/m2
02:57 59 °F 55.2 °F 29.8 in ENE 0.9 mph 3 mph 87% 0 in 0 W/m2
03:02 59 °F 55.4 °F 29.8 in SW 0.9 mph 4 mph 88% 0 in 0 W/m2
03:07 59 °F 55.4 °F 29.8 in NW 4 mph 4 mph 88% 0 in 0 W/m2
03:12 59 °F 55.2 °F 29.8 in Calm   3 mph 87% 0 in 0 W/m2
03:17 59 °F 55.2 °F 29.8 in Calm   3 mph 87% 0 in 0 W/m2
03:22 59 °F 55.2 °F 29.8 in East 0.9 mph 4 mph 87% 0 in 0 W/m2
03:27 58.8 °F 55 °F 29.8 in WNW 0.9 mph 2 mph 87% 0 in 0 W/m2
03:32 58.8 °F 55 °F 29.8 in Calm   2 mph 87% 0 in 0 W/m2
03:37 58.6 °F 55 °F 29.8 in North 0.9 mph 2 mph 88% 0 in 0 W/m2
03:42 58.6 °F 55 °F 29.8 in Calm   3 mph 88% 0 in 0 W/m2
03:47 58.5 °F 54.9 °F 29.8 in Calm   4 mph 88% 0 in 0 W/m2
03:52 58.5 °F 54.9 °F 29.8 in West 0.9 mph 3 mph 88% 0 in 0 W/m2
03:57 58.3 °F 54.7 °F 29.8 in South 2 mph 2 mph 88% 0 in 0 W/m2
04:02 58.3 °F 54.7 °F 29.8 in NE 0.9 mph 3 mph 88% 0 in 0 W/m2
04:07 58.1 °F 54.5 °F 29.8 in NW 2 mph 2 mph 88% 0 in 0 W/m2
04:12 58.1 °F 54.5 °F 29.8 in NW 0.9 mph 2 mph 88% 0 in 0 W/m2
04:17 58.1 °F 54.5 °F 29.8 in WNW 0.9 mph 2 mph 88% 0 in 0 W/m2
04:35 57.7 °F 54.1 °F 29.8 in NW 2 mph 3 mph 88% 0 in 0 W/m2
04:40 57.7 °F 54.1 °F 29.8 in Calm   2 mph 88% 0 in 0 W/m2
04:45 57.7 °F 54.1 °F 29.8 in NW 2 mph 2 mph 88% 0 in 0 W/m2
04:50 57.6 °F 54 °F 29.8 in Calm   2 mph 88% 0 in 0 W/m2
05:09 57.2 °F 54 °F 29.8 in SSW 2.9 mph 3 mph 89% 0 in 0 W/m2
05:14 57 °F 53.8 °F 29.8 in WSW 4.9 mph 7 mph 89% 0 in 0 W/m2
05:19 57.2 °F 54 °F 29.8 in WNW 2.9 mph 4 mph 89% 0 in 0 W/m2
05:24 57.2 °F 54 °F 29.8 in NW 5 mph 5 mph 89% 0 in 0 W/m2
05:29 57.4 °F 54.1 °F 29.8 in SSW 4.9 mph 6 mph 89% 0 in 0 W/m2
05:34 57.4 °F 54.1 °F 29.8 in West 2 mph 4 mph 89% 0 in 0 W/m2
05:39 57.6 °F 54.3 °F 29.8 in WSW 0.9 mph 3 mph 89% 0 in 0 W/m2
05:44 57.6 °F 54.3 °F 29.8 in NNW 2 mph 7 mph 89% 0 in 0 W/m2
05:49 57.6 °F 54.3 °F 29.8 in East 2 mph 4 mph 89% 0 in 0 W/m2
05:54 57.4 °F 54.1 °F 29.8 in WNW 2 mph 7 mph 89% 0 in 0 W/m2
05:59 57.4 °F 54.1 °F 29.8 in NW 2.9 mph 6 mph 89% 0 in 0 W/m2
06:04 57.2 °F 53.6 °F 29.8 in WNW 0.9 mph 3 mph 88% 0 in 0 W/m2
06:09 57 °F 53.8 °F 29.8 in NW 2 mph 7 mph 89% 0 in 0 W/m2
06:14 57 °F 53.8 °F 29.8 in NNW 2.9 mph 6 mph 89% 0 in 0 W/m2
06:19 56.8 °F 53.6 °F 29.8 in WNW 6.9 mph 10 mph 89% 0 in 5 W/m2
06:24 56.8 °F 53.6 °F 29.8 in West 4 mph 6 mph 89% 0 in 5 W/m2
06:29 56.8 °F 53.6 °F 29.8 in West 0.9 mph 10 mph 89% 0 in 7 W/m2
06:34 56.7 °F 53.4 °F 29.8 in NW 2 mph 6 mph 89% 0 in 9 W/m2
06:39 56.7 °F 53.4 °F 29.8 in WNW 10.1 mph 10 mph 89% 0 in 11 W/m2
06:44 56.5 °F 53.2 °F 29.8 in WSW 2 mph 5 mph 89% 0 in 14 W/m2
06:49 56.5 °F 53.2 °F 29.8 in West 4 mph 4 mph 89% 0 in 16 W/m2
06:54 56.5 °F 53.2 °F 29.8 in WSW 0.9 mph 8 mph 89% 0 in 18 W/m2
06:59 56.5 °F 53.2 °F 29.8 in NW 4.9 mph 5 mph 89% 0 in 21 W/m2
07:04 56.5 °F 53.2 °F 29.8 in NW 2.9 mph 8 mph 89% 0 in 21 W/m2
07:09 56.7 °F 53.4 °F 29.8 in North 0.9 mph 4 mph 89% 0 in 23 W/m2
07:14 56.7 °F 53.4 °F 29.8 in NE 2 mph 2 mph 89% 0 in 25 W/m2
07:19 56.7 °F 53.4 °F 29.8 in NNW 4 mph 4 mph 89% 0 in 28 W/m2
07:24 56.7 °F 53.4 °F 29.8 in ENE 2 mph 2 mph 89% 0 in 25 W/m2
07:29 56.7 °F 53.4 °F 29.8 in ESE 2 mph 3 mph 89% 0 in 33 W/m2
07:34 56.7 °F 53.4 °F 29.8 in NE 2.9 mph 3 mph 89% 0 in 35 W/m2
07:39 56.8 °F 53.6 °F 29.8 in SSE 0.9 mph 5 mph 89% 0 in 42 W/m2
07:57 57.4 °F 53.8 °F 29.8 in Calm   3 mph 88% 0 in 42 W/m2
08:02 57.6 °F 53.8 °F 29.8 in NW 2.9 mph 8 mph 87% 0 in 49 W/m2
08:07 57.7 °F 54 °F 29.8 in NNW 0.9 mph 3 mph 87% 0 in 58 W/m2
08:12 58.3 °F 54.1 °F 29.8 in Calm   7 mph 86% 0 in 70 W/m2
08:17 58.6 °F 54.5 °F 29.8 in West 6 mph 10 mph 86% 0 in 74 W/m2
08:22 58.6 °F 54.1 °F 29.8 in NW 2.9 mph 6 mph 85% 0 in 88 W/m2
08:27 59.2 °F 54.3 °F 29.8 in NW 0.9 mph 10 mph 84% 0 in 90 W/m2
08:32 59.5 °F 54.7 °F 29.8 in WSW 4 mph 7 mph 84% 0 in 91 W/m2
08:37 59.7 °F 54.9 °F 29.8 in WNW 0.9 mph 9 mph 84% 0 in 102 W/m2
08:42 60.1 °F 54.9 °F 29.8 in NW 4 mph 8 mph 83% 0 in 128 W/m2
08:47 60.3 °F 55 °F 29.8 in ESE 0.9 mph 8 mph 83% 0 in 234 W/m2
08:52 60.4 °F 54.9 °F 29.8 in SSE 2 mph 9 mph 82% 0 in 336 W/m2
08:57 60.6 °F 55 °F 29.8 in NNW 6 mph 13 mph 82% 0 in 134 W/m2
09:02 60.4 °F 54.9 °F 29.8 in WSW 4 mph 7 mph 82% 0 in 179 W/m2
09:07 60.4 °F 54.9 °F 29.8 in NW 2.9 mph 9 mph 82% 0 in 130 W/m2
09:12 60.4 °F 54.9 °F 29.8 in WNW 4.9 mph 6 mph 82% 0 in 111 W/m2
09:17 60.4 °F 55.2 °F 29.8 in WNW 0.9 mph 2 mph 83% 0 in 148 W/m2
09:22 60.3 °F 55 °F 29.8 in West 0.9 mph 2 mph 83% 0 in 163 W/m2
09:27 60.3 °F 55 °F 29.8 in NE 2 mph 5 mph 83% 0 in 265 W/m2
10:04 61.5 °F 56.3 °F 29.9 in West 2.9 mph 4 mph 83% 0 in 134 W/m2
10:09 61.3 °F 56.5 °F 29.9 in East 2 mph 5 mph 84% 0.01 in 128 W/m2
10:14 61.2 °F 56.7 °F 29.9 in Calm   1 mph 85% 0.01 in 46 W/m2
10:19 61 °F 56.8 °F 29.9 in NW 0.9 mph 5 mph 86% 0.02 in 169 W/m2
10:24 61 °F 57 °F 29.9 in NW 0.9 mph 3 mph 87% 0.02 in 221 W/m2
10:29 61.2 °F 57.2 °F 29.9 in NW 2 mph 3 mph 87% 0.02 in 223 W/m2
10:34 61.3 °F 57.4 °F 29.9 in NNE 2 mph 3 mph 87% 0.02 in 149 W/m2
10:39 61.3 °F 57.2 °F 29.9 in Calm   3 mph 86% 0.02 in 192 W/m2
10:44 61.5 °F 57.4 °F 29.9 in ENE 0.9 mph 2 mph 86% 0.02 in 287 W/m2
10:49 62.1 °F 57.7 °F 29.9 in Calm   3 mph 86% 0.02 in 237 W/m2
10:54 62.4 °F 57.9 °F 29.9 in WNW 4 mph 7 mph 85% 0.02 in 281 W/m2
10:59 63 °F 58.5 °F 29.9 in West 2 mph 3 mph 85% 0.02 in 874 W/m2
11:04 63.1 °F 57.9 °F 29.9 in Calm   4 mph 83% 0.02 in 795 W/m2
11:09 63.1 °F 57.2 °F 29.9 in North 2.9 mph 4 mph 81% 0.01 in 178 W/m2
11:14 62.8 °F 56.5 °F 29.9 in WNW 4 mph 9 mph 80% 0.01 in 100 W/m2
11:19 62.1 °F 56.5 °F 29.9 in NNW 0.9 mph 5 mph 82% 0 in 156 W/m2
11:24 61.9 °F 56.7 °F 29.9 in WNW 0.9 mph 9 mph 83% 0 in 380 W/m2
11:29 62.1 °F 57.2 °F 29.9 in WNW 2 mph 3 mph 84% 0 in 809 W/m2
11:34 62.8 °F 57.2 °F 29.9 in WNW 8.1 mph 9 mph 82% 0 in 232 W/m2
11:39 63.1 °F 56.5 °F 29.9 in NW 4 mph 8 mph 79% 0 in 236 W/m2
11:44 63.7 °F 57 °F 29.9 in WSW 2.9 mph 9 mph 79% 0.01 in 225 W/m2
11:49 62.6 °F 56.7 °F 29.9 in NW 2.9 mph 8 mph 81% 0.05 in 197 W/m2
11:54 61.7 °F 56.8 °F 29.9 in Calm   4 mph 84% 0.05 in 163 W/m2
11:59 61.3 °F 56.5 °F 29.9 in NW 0.9 mph 4 mph 84% 0.05 in 169 W/m2
12:04 61.5 °F 57 °F 29.9 in NNW 2.9 mph 9 mph 85% 0.05 in 865 W/m2
12:09 61.9 °F 56.7 °F 29.9 in NW 2 mph 7 mph 83% 0.05 in 461 W/m2
12:14 62.2 °F 56.7 °F 29.9 in South 2.9 mph 6 mph 82% 0.05 in 306 W/m2
12:19 62.8 °F 57.2 °F 29.9 in NNW 8.1 mph 8 mph 82% 0.05 in 461 W/m2
12:24 63.1 °F 57.2 °F 29.9 in NNW 2 mph 5 mph 81% 0.05 in 1016 W/m2
12:29 63.9 °F 57.6 °F 29.9 in NW 4.9 mph 9 mph 80% 0.05 in 860 W/m2
12:34 64.2 °F 57.2 °F 29.9 in West 4 mph 11 mph 78% 0.05 in 896 W/m2
12:39 64.4 °F 56.7 °F 29.9 in WNW 0.9 mph 9 mph 76% 0.05 in 840 W/m2
12:44 64.2 °F 56.5 °F 29.9 in SW 2 mph 4 mph 76% 0.03 in 234 W/m2
12:49 64.2 °F 57.2 °F 29.9 in NW 4 mph 8 mph 78% 0 in 345 W/m2
12:54 64.2 °F 57.2 °F 29.9 in NW 6 mph 14 mph 78% 0 in 98 W/m2
12:59 62.6 °F 55.9 °F 29.9 in WSW 2.9 mph 11 mph 79% 0.01 in 77 W/m2
13:04 61.3 °F 55.4 °F 29.9 in WNW 2 mph 14 mph 81% 0.02 in 83 W/m2
13:09 61 °F 55.8 °F 29.9 in NW 0.9 mph 5 mph 83% 0.02 in 824 W/m2
13:14 61.3 °F 56.1 °F 29.9 in SE 0.9 mph 3 mph 83% 0.02 in 772 W/m2
13:19 62.2 °F 57.4 °F 29.9 in West 2.9 mph 5 mph 84% 0.02 in 940 W/m2
13:24 63 °F 57.4 °F 29.9 in NNW 0.9 mph 2 mph 82% 0.02 in 146 W/m2
13:29 63.3 °F 57 °F 29.9 in WSW 4 mph 8 mph 80% 0.02 in 236 W/m2
13:34 63.3 °F 56.3 °F 29.9 in West 4 mph 7 mph 78% 0.02 in 343 W/m2
13:40 63.3 °F 56.7 °F 29.9 in WSW 2 mph 5 mph 79% 0.02 in 316 W/m2
13:45 63.3 °F 56.7 °F 29.9 in WNW 2 mph 5 mph 79% 0.02 in 244 W/m2
13:50 63.1 °F 56.1 °F 29.9 in West 2.9 mph 7 mph 78% 0.02 in 132 W/m2
13:55 62.8 °F 55.8 °F 29.9 in West 6.9 mph 10 mph 78% 0.02 in 65 W/m2
14:00 61.5 °F 55.2 °F 29.9 in West 4 mph 4 mph 80% 0.02 in 146 W/m2
14:05 61 °F 55.4 °F 29.9 in NW 2.9 mph 4 mph 82% 0.01 in 279 W/m2
14:10 61 °F 56.1 °F 29.9 in WNW 2.9 mph 4 mph 84% 0.01 in 306 W/m2
14:15 61.2 °F 56.3 °F 29.9 in West 8.1 mph 10 mph 84% 0.02 in 348 W/m2
14:20 61.3 °F 56.5 °F 29.9 in WNW 6 mph 7 mph 84% 0.02 in 376 W/m2
14:25 61.9 °F 56.7 °F 29.9 in NW 10 mph 10 mph 83% 0.02 in 420 W/m2
14:30 62.4 °F 56.8 °F 29.9 in WNW 6.9 mph 8 mph 82% 0.02 in 425 W/m2
14:35 63 °F 57.7 °F 29.9 in NW 4 mph 8 mph 83% 0.02 in 902 W/m2
14:40 63.1 °F 56.8 °F 29.9 in WSW 6.9 mph 13 mph 80% 0.02 in 860 W/m2
14:45 63.5 °F 56.8 °F 29.9 in WNW 8.9 mph 11 mph 79% 0.02 in 881 W/m2
14:50 63.7 °F 57 °F 29.9 in West 6.9 mph 18 mph 79% 0.02 in 935 W/m2
14:55 63.9 °F 56.8 °F 29.9 in West 8.1 mph 10 mph 78% 0.02 in 230 W/m2
15:00 64.4 °F 56.7 °F 29.9 in NW 4 mph 14 mph 76% 0.01 in 230 W/m2
15:05 64.9 °F 55.8 °F 29.9 in WSW 6.9 mph 9 mph 72% 0.01 in 874 W/m2
15:10 65.3 °F 55.2 °F 29.9 in WSW 8.1 mph 10 mph 70% 0.01 in 837 W/m2
15:15 65.7 °F 55.2 °F 29.9 in West 2.9 mph 8 mph 69% 0 in 868 W/m2
15:20 66.2 °F 55.4 °F 29.9 in WSW 12.1 mph 13 mph 68% 0 in 879 W/m2
15:25 66.4 °F 55 °F 29.9 in WSW 6 mph 10 mph 67% 0 in 879 W/m2
15:30 66.4 °F 55 °F 29.9 in NW 4.9 mph 15 mph 67% 0 in 879 W/m2
15:35 66.4 °F 54.7 °F 29.9 in SW 4 mph 10 mph 66% 0 in 598 W/m2
15:40 66.7 °F 55 °F 29.9 in NW 0.9 mph 15 mph 66% 0 in 874 W/m2
15:45 67.5 °F 54.5 °F 29.9 in Calm   15 mph 63% 0 in 793 W/m2
15:50 67.5 °F 53.6 °F 29.9 in WSW 6 mph 8 mph 61% 0 in 780 W/m2
15:55 67.6 °F 54.1 °F 29.9 in West 2.9 mph 9 mph 62% 0 in 777 W/m2
16:00 67.6 °F 53.2 °F 29.9 in NW 2.9 mph 12 mph 60% 0 in 800 W/m2
16:05 67.6 °F 53.8 °F 29.9 in NE 2 mph 8 mph 61% 0 in 784 W/m2
16:10 67.8 °F 53.4 °F 29.9 in NW 6 mph 12 mph 60% 0 in 742 W/m2
16:15 67.6 °F 53.8 °F 29.9 in West 0.9 mph 6 mph 61% 0 in 729 W/m2
16:20 67.5 °F 53.6 °F 29.9 in NNW 6 mph 15 mph 61% 0 in 724 W/m2
16:25 67.3 °F 54.3 °F 29.9 in WNW 2.9 mph 9 mph 63% 0 in 712 W/m2
16:30 67.5 °F 54.5 °F 29.9 in East 2 mph 15 mph 63% 0 in 726 W/m2
16:35 67.6 °F 54.1 °F 29.9 in NE 2 mph 6 mph 62% 0 in 765 W/m2
16:40 68 °F 54.5 °F 29.9 in South 6 mph 9 mph 62% 0 in 793 W/m2
16:45 67.6 °F 55 °F 29.9 in WNW 8.1 mph 8 mph 64% 0 in 120 W/m2
16:50 67.5 °F 54.9 °F 29.9 in North 0.9 mph 7 mph 64% 0 in 735 W/m2
16:55 67.3 °F 53.4 °F 29.9 in SSE 2 mph 10 mph 61% 0 in 137 W/m2
17:00 66.9 °F 54 °F 29.9 in WNW 2.9 mph 6 mph 63% 0 in 141 W/m2
17:05 66.9 °F 53.4 °F 29.9 in WNW 0.9 mph 8 mph 62% 0 in 211 W/m2
17:10 66.9 °F 53.4 °F 29.9 in WNW 2 mph 9 mph 62% 0 in 652 W/m2
17:15 67.5 °F 53.6 °F 29.9 in North 2.9 mph 9 mph 61% 0 in 664 W/m2
17:20 67.8 °F 54 °F 29.9 in North 4 mph 9 mph 61% 0 in 598 W/m2
17:25 68.4 °F 55.2 °F 29.9 in WSW 4 mph 7 mph 63% 0 in 594 W/m2
17:30 68.5 °F 54.1 °F 29.9 in NW 4 mph 7 mph 60% 0 in 615 W/m2
17:35 68.5 °F 53.6 °F 29.9 in NNE 2.9 mph 5 mph 59% 0 in 615 W/m2
17:40 69.1 °F 54.7 °F 29.9 in NNW 0.9 mph 3 mph 60% 0 in 594 W/m2
17:45 69.3 °F 54.3 °F 29.9 in NW 2 mph 11 mph 59% 0 in 566 W/m2
17:50 68.7 °F 52.3 °F 29.9 in NW 2 mph 9 mph 56% 0 in 547 W/m2
17:55 68.5 °F 52.7 °F 29.9 in SW 2.9 mph 6 mph 57% 0 in 443 W/m2
18:00 68.4 °F 53.4 °F 29.9 in NW 2 mph 8 mph 59% 0 in 220 W/m2
18:05 67.8 °F 52.9 °F 29.9 in NW 2.9 mph 12 mph 59% 0 in 527 W/m2
18:10 68 °F 53.6 °F 29.9 in NNW 0.9 mph 4 mph 60% 0 in 417 W/m2
18:15 68.2 °F 53.8 °F 29.9 in NNW 2 mph 12 mph 60% 0 in 276 W/m2
18:20 67.8 °F 53.4 °F 29.9 in WNW 0.9 mph 5 mph 60% 0 in 141 W/m2
18:25 67.3 °F 52.5 °F 29.9 in NW 2 mph 8 mph 59% 0 in 209 W/m2
18:30 66.7 °F 52.3 °F 29.9 in WSW 2.9 mph 7 mph 60% 0 in 199 W/m2
18:35 66.4 °F 52.2 °F 29.9 in WSW 4 mph 7 mph 60% 0 in 158 W/m2
18:40 66.2 °F 52.3 °F 29.9 in SW 2 mph 10 mph 61% 0 in 243 W/m2
18:45 66 °F 52.7 °F 29.9 in North 2.9 mph 4 mph 62% 0 in 158 W/m2
18:50 66 °F 52.7 °F 29.9 in WNW 8.1 mph 12 mph 62% 0 in 118 W/m2
18:55 65.7 °F 52.7 °F 29.9 in WNW 2.9 mph 10 mph 63% 0 in 104 W/m2
19:00 65.5 °F 53.4 °F 29.9 in West 6 mph 8 mph 65% 0 in 125 W/m2
19:05 65.5 °F 53.8 °F 30 in WNW 4 mph 5 mph 66% 0 in 169 W/m2
19:10 65.8 °F 54.1 °F 30 in NNW 2.9 mph 4 mph 66% 0 in 339 W/m2
19:15 66.6 °F 54.9 °F 30 in WNW 4.9 mph 7 mph 66% 0 in 283 W/m2
19:21 66.9 °F 54.9 °F 30 in Calm   4 mph 65% 0 in 239 W/m2
19:26 67.3 °F 54.3 °F 30 in WNW 2.9 mph 5 mph 63% 0 in 207 W/m2
19:31 67.3 °F 54.3 °F 30 in NNW 4 mph 4 mph 63% 0 in 158 W/m2
19:36 66.7 °F 53.2 °F 30 in WNW 2 mph 5 mph 62% 0 in 149 W/m2
19:41 66.6 °F 54 °F 30 in NW 2 mph 6 mph 64% 0 in 153 W/m2
19:46 66.4 °F 53.8 °F 30 in Calm   4 mph 64% 0 in 153 W/m2
19:51 66.4 °F 54.3 °F 30 in Calm   3 mph 65% 0 in 148 W/m2
19:56 66.4 °F 54.3 °F 30 in NNW 2 mph 5 mph 65% 0 in 135 W/m2
20:01 66.4 °F 54.3 °F 30 in NW 0.9 mph 1 mph 65% 0 in 121 W/m2
20:06 66.6 °F 54.5 °F 30 in NW 0.9 mph 5 mph 65% 0 in 97 W/m2
20:11 66.6 °F 54.5 °F 30 in Calm   1 mph 65% 0 in 74 W/m2
20:16 66.6 °F 54.9 °F 30 in Calm   2 mph 66% 0 in 58 W/m2
20:21 66.2 °F 54.5 °F 30 in SSW 0.9 mph 2 mph 66% 0 in 21 W/m2
20:26 65.3 °F 54.1 °F 30 in WNW 0.9 mph 2 mph 67% 0 in 23 W/m2
20:31 64.9 °F 54.5 °F 30 in Calm   1 mph 69% 0 in 21 W/m2
20:36 64.4 °F 54.3 °F 30 in Calm   1 mph 70% 0 in 19 W/m2
20:41 63.9 °F 54.3 °F 30 in ESE 0.9 mph 3 mph 71% 0 in 18 W/m2
20:46 63.3 °F 54.1 °F 30 in Calm   1 mph 72% 0 in 12 W/m2
20:51 63 °F 54.5 °F 30 in NE 0.9 mph 2 mph 74% 0 in 11 W/m2
20:56 62.4 °F 54 °F 30 in NW 0.9 mph 3 mph 74% 0 in 9 W/m2
21:01 62.2 °F 54.5 °F 30 in NW 0.9 mph 1 mph 76% 0 in 5 W/m2
21:06 61.9 °F 54.3 °F 30 in SW 2 mph 3 mph 76% 0 in 0 W/m2
21:11 61.3 °F 54.1 °F 30 in North 0.9 mph 3 mph 77% 0 in 0 W/m2
21:16 61.5 °F 54.3 °F 30 in WNW 0.9 mph 2 mph 77% 0 in 0 W/m2
21:21 61.3 °F 54.1 °F 30 in Calm   1 mph 77% 0 in 0 W/m2
21:26 61 °F 53.8 °F 30 in NE 0.9 mph 2 mph 77% 0 in 0 W/m2
21:31 60.6 °F 54.1 °F 30 in NE 0.9 mph 2 mph 79% 0 in 0 W/m2
21:36 60.1 °F 54 °F 30 in Calm   2 mph 80% 0 in 0 W/m2
21:41 59.5 °F 53.8 °F 30 in Calm   2 mph 81% 0 in 0 W/m2
21:46 59.2 °F 53.6 °F 30 in Calm     82% 0 in 0 W/m2
21:51 58.8 °F 53.4 °F 30 in NNW 0.9 mph 2 mph 82% 0 in 0 W/m2
21:56 58.6 °F 53.4 °F 30 in Calm   2 mph 83% 0 in 0 W/m2
22:01 58.5 °F 53.2 °F 30 in Calm     83% 0 in 0 W/m2
22:06 58.3 °F 53.1 °F 30 in Calm     83% 0 in 0 W/m2
22:11 58.1 °F 53.2 °F 30 in Calm     84% 0 in 0 W/m2
22:16 57.9 °F 53.4 °F 30 in NNW 0.9 mph 1 mph 85% 0 in 0 W/m2
22:21 57.9 °F 53.4 °F 30 in Calm   1 mph 85% 0 in 0 W/m2
22:26 57.7 °F 53.2 °F 30 in Calm   1 mph 85% 0 in 0 W/m2
22:31 57.7 °F 53.2 °F 30 in Calm   1 mph 85% 0 in 0 W/m2
22:36 57.6 °F 53.4 °F 30 in NE 0.9 mph 1 mph 86% 0 in 0 W/m2
22:41 57.4 °F 53.2 °F 30 in Calm   1 mph 86% 0 in 0 W/m2
22:46 57.2 °F 53.4 °F 30 in Calm   2 mph 87% 0 in 0 W/m2
22:51 57 °F 53.2 °F 30 in Calm   2 mph 87% 0 in 0 W/m2
22:56 57 °F 53.4 °F 30 in Calm   1 mph 88% 0 in 0 W/m2
23:01 56.8 °F 53.2 °F 30 in Calm   2 mph 88% 0 in 0 W/m2
23:06 56.8 °F 53.2 °F 30 in Calm     88% 0 in 0 W/m2
23:11 56.7 °F 53.4 °F 30 in North 0.9 mph 2 mph 89% 0 in 0 W/m2
23:16 56.7 °F 53.4 °F 30 in Calm     89% 0 in 0 W/m2
23:21 56.7 °F 53.4 °F 30 in Calm   2 mph 89% 0 in 0 W/m2
23:26 56.7 °F 53.4 °F 30 in Calm     89% 0 in 0 W/m2
23:31 56.7 °F 53.4 °F 30 in Calm     89% 0 in 0 W/m2
23:36 56.5 °F 53.2 °F 30 in Calm     89% 0 in 0 W/m2
23:41 56.5 °F 53.2 °F 30 in North 0.9 mph 2 mph 89% 0 in 0 W/m2
23:46 56.5 °F 53.6 °F 30 in Calm   1 mph 90% 0 in 0 W/m2
23:51 56.7 °F 53.4 °F 30 in Calm     89% 0 in 0 W/m2
23:56 56.8 °F 53.6 °F 30 in Calm     89% 0 in 0 W/m2
Juneau County Weather
Compliments of Weather Underground - 4 mb